sensor_id;sensor_type;location;lat;lon;timestamp;pressure;altitude;pressure_sealevel;temperature;humidity
41703;BME280;861;48.808;9.006;2022-10-19T00:01:23;98064.25;;;15.69;84.04
41703;BME280;861;48.808;9.006;2022-10-19T00:03:53;98066.63;;;15.60;84.29
41703;BME280;861;48.808;9.006;2022-10-19T00:06:31;98063.84;;;15.63;83.33
41703;BME280;861;48.808;9.006;2022-10-19T00:09:07;98063.47;;;15.65;84.03
41703;BME280;861;48.808;9.006;2022-10-19T00:11:40;98061.50;;;15.58;83.62
41703;BME280;861;48.808;9.006;2022-10-19T00:14:13;98057.22;;;15.54;84.04
41703;BME280;861;48.808;9.006;2022-10-19T00:16:53;98054.03;;;15.59;83.58
41703;BME280;861;48.808;9.006;2022-10-19T00:19:25;98048.19;;;15.57;83.82
41703;BME280;861;48.808;9.006;2022-10-19T00:21:53;98047.38;;;15.56;84.13
41703;BME280;861;48.808;9.006;2022-10-19T00:24:20;98046.22;;;15.54;83.73
41703;BME280;861;48.808;9.006;2022-10-19T00:26:47;98048.97;;;15.47;83.48
41703;BME280;861;48.808;9.006;2022-10-19T00:29:14;98048.19;;;15.39;84.03
41703;BME280;861;48.808;9.006;2022-10-19T00:31:42;98052.84;;;15.31;84.63
41703;BME280;861;48.808;9.006;2022-10-19T00:34:09;98059.50;;;15.34;83.16
41703;BME280;861;48.808;9.006;2022-10-19T00:36:39;98053.69;;;15.43;82.56
41703;BME280;861;48.808;9.006;2022-10-19T00:39:11;98048.94;;;15.43;82.45
41703;BME280;861;48.808;9.006;2022-10-19T00:41:43;98052.47;;;15.51;82.72
41703;BME280;861;48.808;9.006;2022-10-19T00:46:40;98055.59;;;15.24;83.96
41703;BME280;861;48.808;9.006;2022-10-19T00:49:27;98066.97;;;15.30;83.91
41703;BME280;861;48.808;9.006;2022-10-19T00:52:13;98056.81;;;15.41;82.48
41703;BME280;861;48.808;9.006;2022-10-19T00:54:46;98060.31;;;15.42;82.56
41703;BME280;861;48.808;9.006;2022-10-19T00:57:15;98047.78;;;15.41;82.84
41703;BME280;861;48.808;9.006;2022-10-19T00:59:45;98048.53;;;15.38;82.42
41703;BME280;861;48.808;9.006;2022-10-19T01:02:13;98048.94;;;15.36;83.28
41703;BME280;861;48.808;9.006;2022-10-19T01:04:46;98054.03;;;15.34;82.88
41703;BME280;861;48.808;9.006;2022-10-19T01:07:18;98057.53;;;15.27;83.61
41703;BME280;861;48.808;9.006;2022-10-19T01:09:46;98057.16;;;15.25;83.46
41703;BME280;861;48.808;9.006;2022-10-19T01:12:54;98051.66;;;15.25;82.63
41703;BME280;861;48.808;9.006;2022-10-19T01:16:07;98045.78;;;15.20;84.20
41703;BME280;861;48.808;9.006;2022-10-19T01:25:58;98046.56;;;15.13;84.94
41703;BME280;861;48.808;9.006;2022-10-19T01:29:16;98043.41;;;15.15;84.55
41703;BME280;861;48.808;9.006;2022-10-19T01:35:34;98029.72;;;15.29;83.02
41703;BME280;861;48.808;9.006;2022-10-19T01:38:55;98027.34;;;15.27;82.60
41703;BME280;861;48.808;9.006;2022-10-19T01:41:28;98028.13;;;15.21;83.31
41703;BME280;861;48.808;9.006;2022-10-19T01:46:42;98021.47;;;15.25;83.09
41703;BME280;861;48.808;9.006;2022-10-19T01:49:35;98022.66;;;15.21;82.86
41703;BME280;861;48.808;9.006;2022-10-19T01:52:15;98025.78;;;15.09;84.05
41703;BME280;861;48.808;9.006;2022-10-19T01:54:51;98019.88;;;14.93;84.79
41703;BME280;861;48.808;9.006;2022-10-19T01:57:32;98017.50;;;14.84;85.32
41703;BME280;861;48.808;9.006;2022-10-19T02:00:07;98019.88;;;14.86;86.12
41703;BME280;861;48.808;9.006;2022-10-19T02:02:47;98017.53;;;15.02;85.80
41703;BME280;861;48.808;9.006;2022-10-19T02:05:21;98014.03;;;15.12;84.57
41703;BME280;861;48.808;9.006;2022-10-19T02:08:07;98016.00;;;15.18;84.61
41703;BME280;861;48.808;9.006;2022-10-19T02:10:43;98016.38;;;15.13;84.70
41703;BME280;861;48.808;9.006;2022-10-19T02:13:15;98015.19;;;15.18;84.51
41703;BME280;861;48.808;9.006;2022-10-19T02:15:50;98008.94;;;15.21;84.55
41703;BME280;861;48.808;9.006;2022-10-19T02:18:30;98009.72;;;15.25;83.96
41703;BME280;861;48.808;9.006;2022-10-19T02:21:05;98005.00;;;15.25;84.67
41703;BME280;861;48.808;9.006;2022-10-19T02:23:32;98006.59;;;15.26;84.18
41703;BME280;861;48.808;9.006;2022-10-19T02:25:59;98006.19;;;15.10;85.62
41703;BME280;861;48.808;9.006;2022-10-19T02:28:27;98000.31;;;15.19;85.37
41703;BME280;861;48.808;9.006;2022-10-19T02:30:57;97993.66;;;15.23;85.98
41703;BME280;861;48.808;9.006;2022-10-19T02:33:27;97999.16;;;15.23;85.06
41703;BME280;861;48.808;9.006;2022-10-19T02:35:55;97996.78;;;15.22;85.95
41703;BME280;861;48.808;9.006;2022-10-19T02:38:24;97990.91;;;15.23;85.75
41703;BME280;861;48.808;9.006;2022-10-19T02:44:45;97999.13;;;15.16;85.98
41703;BME280;861;48.808;9.006;2022-10-19T02:47:29;97995.22;;;15.28;85.68
41703;BME280;861;48.808;9.006;2022-10-19T02:50:00;97996.78;;;15.25;85.84
41703;BME280;861;48.808;9.006;2022-10-19T02:52:30;97988.56;;;15.22;85.62
41703;BME280;861;48.808;9.006;2022-10-19T02:54:56;97992.06;;;15.26;85.64
41703;BME280;861;48.808;9.006;2022-10-19T02:57:25;97979.91;;;15.27;85.87
41703;BME280;861;48.808;9.006;2022-10-19T02:59:52;97973.63;;;15.33;85.70
41703;BME280;861;48.808;9.006;2022-10-19T03:02:20;97976.41;;;15.41;85.27
41703;BME280;861;48.808;9.006;2022-10-19T03:04:47;97977.97;;;15.31;85.94
41703;BME280;861;48.808;9.006;2022-10-19T03:07:17;97976.78;;;15.35;85.15
41703;BME280;861;48.808;9.006;2022-10-19T03:09:45;97973.28;;;15.31;85.87
41703;BME280;861;48.808;9.006;2022-10-19T03:12:13;97972.88;;;15.40;85.90
41703;BME280;861;48.808;9.006;2022-10-19T03:14:40;97968.59;;;15.43;86.19
41703;BME280;861;48.808;9.006;2022-10-19T03:17:08;97968.97;;;15.41;86.50
41703;BME280;861;48.808;9.006;2022-10-19T03:19:35;97958.75;;;15.42;86.02
41703;BME280;861;48.808;9.006;2022-10-19T03:22:03;97966.22;;;15.52;86.28
41703;BME280;861;48.808;9.006;2022-10-19T03:24:31;97966.22;;;15.48;86.18
41703;BME280;861;48.808;9.006;2022-10-19T03:26:58;97959.97;;;15.44;86.55
41703;BME280;861;48.808;9.006;2022-10-19T03:29:24;97963.06;;;15.46;86.63
41703;BME280;861;48.808;9.006;2022-10-19T03:31:51;97957.22;;;15.44;87.06
41703;BME280;861;48.808;9.006;2022-10-19T03:34:17;97965.41;;;15.48;86.91
41703;BME280;861;48.808;9.006;2022-10-19T03:36:44;97958.38;;;15.47;86.42
41703;BME280;861;48.808;9.006;2022-10-19T03:39:14;97956.00;;;15.52;86.54
41703;BME280;861;48.808;9.006;2022-10-19T03:41:41;97949.31;;;15.60;86.66
41703;BME280;861;48.808;9.006;2022-10-19T03:44:10;97956.38;;;15.61;86.87
41703;BME280;861;48.808;9.006;2022-10-19T03:46:38;97957.94;;;15.62;87.21
41703;BME280;861;48.808;9.006;2022-10-19T03:49:06;97961.09;;;15.61;87.73
41703;BME280;861;48.808;9.006;2022-10-19T03:51:35;97959.13;;;15.61;87.00
41703;BME280;861;48.808;9.006;2022-10-19T03:54:06;97955.19;;;15.66;86.68
41703;BME280;861;48.808;9.006;2022-10-19T03:56:38;97954.81;;;15.64;87.52
41703;BME280;861;48.808;9.006;2022-10-19T03:59:05;97956.34;;;15.68;87.57
41703;BME280;861;48.808;9.006;2022-10-19T04:01:38;97959.50;;;15.70;87.75
41703;BME280;861;48.808;9.006;2022-10-19T04:04:14;97957.91;;;15.73;87.33
41703;BME280;861;48.808;9.006;2022-10-19T04:06:44;97962.63;;;15.76;86.93
41703;BME280;861;48.808;9.006;2022-10-19T04:09:16;97953.25;;;15.59;87.94
41703;BME280;861;48.808;9.006;2022-10-19T04:11:46;97950.91;;;15.61;88.49
41703;BME280;861;48.808;9.006;2022-10-19T04:14:19;97951.66;;;15.62;88.24
41703;BME280;861;48.808;9.006;2022-10-19T04:16:47;97951.31;;;15.56;88.00
41703;BME280;861;48.808;9.006;2022-10-19T04:19:15;97947.38;;;15.40;89.36
41703;BME280;861;48.808;9.006;2022-10-19T04:21:43;97946.19;;;15.33;90.38
41703;BME280;861;48.808;9.006;2022-10-19T04:24:14;97950.13;;;15.36;90.00
41703;BME280;861;48.808;9.006;2022-10-19T04:26:46;97952.06;;;15.28;90.00
41703;BME280;861;48.808;9.006;2022-10-19T04:29:17;97946.63;;;15.21;90.67
41703;BME280;861;48.808;9.006;2022-10-19T04:31:47;97951.72;;;15.41;89.96
41703;BME280;861;48.808;9.006;2022-10-19T04:34:15;97947.00;;;15.52;89.44
41703;BME280;861;48.808;9.006;2022-10-19T04:36:42;97945.00;;;15.66;88.54
41703;BME280;861;48.808;9.006;2022-10-19T04:39:09;97942.22;;;15.77;88.58
41703;BME280;861;48.808;9.006;2022-10-19T04:41:37;97935.94;;;15.76;88.44
41703;BME280;861;48.808;9.006;2022-10-19T04:44:05;97938.28;;;15.81;87.62
41703;BME280;861;48.808;9.006;2022-10-19T04:46:32;97948.84;;;15.90;87.73
41703;BME280;861;48.808;9.006;2022-10-19T04:49:00;97939.47;;;15.80;88.63
41703;BME280;861;48.808;9.006;2022-10-19T04:51:29;97944.97;;;15.70;89.15
41703;BME280;861;48.808;9.006;2022-10-19T04:53:56;97948.91;;;15.69;89.81
41703;BME280;861;48.808;9.006;2022-10-19T04:56:28;97942.22;;;15.77;89.33
41703;BME280;861;48.808;9.006;2022-10-19T04:58:57;97947.34;;;15.64;90.49
41703;BME280;861;48.808;9.006;2022-10-19T05:01:27;97945.41;;;15.65;90.41
41703;BME280;861;48.808;9.006;2022-10-19T05:04:00;97953.22;;;15.73;89.46
41703;BME280;861;48.808;9.006;2022-10-19T05:06:28;97940.22;;;15.84;88.87
41703;BME280;861;48.808;9.006;2022-10-19T05:08:57;97941.06;;;15.71;90.36
41703;BME280;861;48.808;9.006;2022-10-19T05:11:24;97944.56;;;15.78;89.77
41703;BME280;861;48.808;9.006;2022-10-19T05:13:52;97948.06;;;15.86;89.65
41703;BME280;861;48.808;9.006;2022-10-19T05:16:22;97945.31;;;15.89;90.01
41703;BME280;861;48.808;9.006;2022-10-19T05:18:56;97941.38;;;15.94;89.82
41703;BME280;861;48.808;9.006;2022-10-19T05:21:25;97938.16;;;16.09;89.48
41703;BME280;861;48.808;9.006;2022-10-19T05:23:55;97937.75;;;16.18;89.04
41703;BME280;861;48.808;9.006;2022-10-19T05:26:25;97942.84;;;16.16;88.71
41703;BME280;861;48.808;9.006;2022-10-19T05:28:58;97938.97;;;16.10;89.25
41703;BME280;861;48.808;9.006;2022-10-19T05:31:32;97937.34;;;16.16;89.44
41703;BME280;861;48.808;9.006;2022-10-19T05:34:00;97938.94;;;16.13;89.33
41703;BME280;861;48.808;9.006;2022-10-19T05:36:36;97937.38;;;16.12;90.25
41703;BME280;861;48.808;9.006;2022-10-19T05:40:11;97934.63;;;16.12;89.66
41703;BME280;861;48.808;9.006;2022-10-19T05:42:37;97927.91;;;16.20;89.32
41703;BME280;861;48.808;9.006;2022-10-19T05:45:05;97925.22;;;16.06;90.06
41703;BME280;861;48.808;9.006;2022-10-19T05:47:33;97938.19;;;16.06;90.20
41703;BME280;861;48.808;9.006;2022-10-19T05:50:00;97939.31;;;16.15;88.99
41703;BME280;861;48.808;9.006;2022-10-19T05:52:27;97939.69;;;16.17;89.25
41703;BME280;861;48.808;9.006;2022-10-19T05:56:29;97946.31;;;16.30;88.05
41703;BME280;861;48.808;9.006;2022-10-19T05:59:01;97935.72;;;16.32;87.98
41703;BME280;861;48.808;9.006;2022-10-19T06:01:33;97942.03;;;16.22;89.13
41703;BME280;861;48.808;9.006;2022-10-19T06:04:02;97942.50;;;16.10;89.95
41703;BME280;861;48.808;9.006;2022-10-19T06:06:31;97943.22;;;16.21;89.07
41703;BME280;861;48.808;9.006;2022-10-19T06:08:59;97944.41;;;16.20;89.72
41703;BME280;861;48.808;9.006;2022-10-19T06:11:30;97943.19;;;16.25;88.80
41703;BME280;861;48.808;9.006;2022-10-19T06:14:03;97947.47;;;16.33;89.03
41703;BME280;861;48.808;9.006;2022-10-19T06:16:33;97940.41;;;16.35;88.39
41703;BME280;861;48.808;9.006;2022-10-19T06:19:01;97941.22;;;16.29;89.97
41703;BME280;861;48.808;9.006;2022-10-19T06:21:32;97948.28;;;16.30;89.61
41703;BME280;861;48.808;9.006;2022-10-19T06:24:05;97953.84;;;16.23;90.19
41703;BME280;861;48.808;9.006;2022-10-19T06:26:33;97957.78;;;16.15;90.97
41703;BME280;861;48.808;9.006;2022-10-19T06:29:02;97949.06;;;16.30;89.92
41703;BME280;861;48.808;9.006;2022-10-19T06:31:32;97956.94;;;16.28;90.13
41703;BME280;861;48.808;9.006;2022-10-19T06:34:01;97955.72;;;16.33;90.18
41703;BME280;861;48.808;9.006;2022-10-19T06:36:30;97951.03;;;16.33;89.75
41703;BME280;861;48.808;9.006;2022-10-19T06:38:57;97956.84;;;16.42;89.40
41703;BME280;861;48.808;9.006;2022-10-19T06:41:27;97951.00;;;16.37;89.67
41703;BME280;861;48.808;9.006;2022-10-19T06:43:55;97960.00;;;16.37;90.71
41703;BME280;861;48.808;9.006;2022-10-19T06:46:25;97951.81;;;16.34;90.62
41703;BME280;861;48.808;9.006;2022-10-19T06:48:56;97965.56;;;16.30;91.56
41703;BME280;861;48.808;9.006;2022-10-19T06:51:28;97970.22;;;16.40;90.64
41703;BME280;861;48.808;9.006;2022-10-19T06:53:58;97967.44;;;16.44;90.96
41703;BME280;861;48.808;9.006;2022-10-19T06:56:26;97969.44;;;16.43;91.46
41703;BME280;861;48.808;9.006;2022-10-19T06:58:53;97966.66;;;16.54;90.43
41703;BME280;861;48.808;9.006;2022-10-19T07:01:21;97967.06;;;16.49;91.66
41703;BME280;861;48.808;9.006;2022-10-19T07:03:51;97965.91;;;16.36;92.30
41703;BME280;861;48.808;9.006;2022-10-19T07:06:19;97972.22;;;16.33;92.96
41703;BME280;861;48.808;9.006;2022-10-19T07:08:47;97973.06;;;16.23;93.71
41703;BME280;861;48.808;9.006;2022-10-19T07:11:20;97980.53;;;16.15;94.18
41703;BME280;861;48.808;9.006;2022-10-19T07:13:48;97967.19;;;16.17;94.93
41703;BME280;861;48.808;9.006;2022-10-19T07:16:17;97970.28;;;16.26;94.37
41703;BME280;861;48.808;9.006;2022-10-19T07:18:45;97973.81;;;16.27;94.21
41703;BME280;861;48.808;9.006;2022-10-19T07:21:15;97969.13;;;16.20;95.22
41703;BME280;861;48.808;9.006;2022-10-19T07:23:45;97982.47;;;16.18;95.38
41703;BME280;861;48.808;9.006;2022-10-19T07:26:26;97978.56;;;16.19;94.69
41703;BME280;861;48.808;9.006;2022-10-19T07:28:57;97968.38;;;16.20;95.10
41703;BME280;861;48.808;9.006;2022-10-19T07:31:26;97967.94;;;16.28;95.19
41703;BME280;861;48.808;9.006;2022-10-19T07:34:00;97971.00;;;16.37;94.31
41703;BME280;861;48.808;9.006;2022-10-19T07:36:31;97971.00;;;16.41;94.28
41703;BME280;861;48.808;9.006;2022-10-19T07:39:03;97975.31;;;16.52;94.02
41703;BME280;861;48.808;9.006;2022-10-19T07:41:32;97973.63;;;16.69;92.72
41703;BME280;861;48.808;9.006;2022-10-19T07:44:03;97976.66;;;16.85;91.91
41703;BME280;861;48.808;9.006;2022-10-19T07:46:32;97971.13;;;16.92;91.20
41703;BME280;861;48.808;9.006;2022-10-19T07:49:00;97970.75;;;16.90;91.95
41703;BME280;861;48.808;9.006;2022-10-19T07:51:27;97969.91;;;16.97;91.90
41703;BME280;861;48.808;9.006;2022-10-19T07:53:54;97966.78;;;16.91;91.56
41703;BME280;861;48.808;9.006;2022-10-19T07:56:26;97965.63;;;16.92;92.07
41703;BME280;861;48.808;9.006;2022-10-19T07:58:56;97972.38;;;16.77;90.49
41703;BME280;861;48.808;9.006;2022-10-19T08:01:39;97966.16;;;16.73;91.18
41703;BME280;861;48.808;9.006;2022-10-19T08:04:07;97967.28;;;16.75;91.06
41703;BME280;861;48.808;9.006;2022-10-19T08:06:33;97970.81;;;16.79;91.01
41703;BME280;861;48.808;9.006;2022-10-19T08:09:01;97967.25;;;16.83;90.72
41703;BME280;861;48.808;9.006;2022-10-19T08:11:32;97967.22;;;16.86;91.26
41703;BME280;861;48.808;9.006;2022-10-19T08:14:01;97972.72;;;16.86;90.09
41703;BME280;861;48.808;9.006;2022-10-19T08:16:34;97964.03;;;16.91;88.76
41703;BME280;861;48.808;9.006;2022-10-19T08:19:11;97969.19;;;16.89;89.41
41703;BME280;861;48.808;9.006;2022-10-19T08:21:44;97968.72;;;16.98;89.58
41703;BME280;861;48.808;9.006;2022-10-19T08:24:16;97954.47;;;17.10;88.89
41703;BME280;861;48.808;9.006;2022-10-19T08:26:44;97963.88;;;17.16;88.47
41703;BME280;861;48.808;9.006;2022-10-19T08:29:18;97955.56;;;17.19;87.49
41703;BME280;861;48.808;9.006;2022-10-19T08:31:47;97966.19;;;17.21;87.08
41703;BME280;861;48.808;9.006;2022-10-19T08:34:15;97964.16;;;17.28;86.73
41703;BME280;861;48.808;9.006;2022-10-19T08:36:43;97964.88;;;17.36;86.92
41703;BME280;861;48.808;9.006;2022-10-19T08:41:54;97962.56;;;17.27;86.68
41703;BME280;861;48.808;9.006;2022-10-19T08:47:51;97970.69;;;17.45;85.01
41703;BME280;861;48.808;9.006;2022-10-19T08:50:43;97971.09;;;17.43;85.72
41703;BME280;861;48.808;9.006;2022-10-19T08:53:26;97971.81;;;17.51;85.10
41703;BME280;861;48.808;9.006;2022-10-19T08:56:28;97971.06;;;17.50;84.79
41703;BME280;861;48.808;9.006;2022-10-19T09:02:19;97960.06;;;17.43;85.33
41703;BME280;861;48.808;9.006;2022-10-19T09:05:15;97955.66;;;17.56;84.90
41703;BME280;861;48.808;9.006;2022-10-19T09:07:55;97951.59;;;17.68;84.37
41703;BME280;861;48.808;9.006;2022-10-19T09:10:28;97943.69;;;17.70;83.79
41703;BME280;861;48.808;9.006;2022-10-19T09:13:13;97955.09;;;17.72;83.51
41703;BME280;861;48.808;9.006;2022-10-19T09:15:50;97949.34;;;17.56;83.95
41703;BME280;861;48.808;9.006;2022-10-19T09:18:29;97950.59;;;17.51;84.87
41703;BME280;861;48.808;9.006;2022-10-19T09:21:19;97949.03;;;17.50;83.97
41703;BME280;861;48.808;9.006;2022-10-19T09:24:27;97941.84;;;17.60;83.74
41703;BME280;861;48.808;9.006;2022-10-19T09:27:02;97943.94;;;17.49;84.32
41703;BME280;861;48.808;9.006;2022-10-19T09:29:55;97944.28;;;17.51;83.70
41703;BME280;861;48.808;9.006;2022-10-19T09:32:32;97943.53;;;17.47;84.41
41703;BME280;861;48.808;9.006;2022-10-19T09:37:55;97956.38;;;17.60;83.82
41703;BME280;861;48.808;9.006;2022-10-19T09:40:30;97955.41;;;17.37;84.29
41703;BME280;861;48.808;9.006;2022-10-19T09:42:58;97947.28;;;17.23;84.20
41703;BME280;861;48.808;9.006;2022-10-19T09:45:54;97951.22;;;17.22;85.66
41703;BME280;861;48.808;9.006;2022-10-19T09:48:43;97958.72;;;17.18;84.52
41703;BME280;861;48.808;9.006;2022-10-19T09:51:17;97954.47;;;17.10;84.67
41703;BME280;861;48.808;9.006;2022-10-19T09:53:52;97953.31;;;17.07;84.97
41703;BME280;861;48.808;9.006;2022-10-19T09:56:25;97953.16;;;17.25;83.91
41703;BME280;861;48.808;9.006;2022-10-19T09:58:57;97950.97;;;17.02;84.45
41703;BME280;861;48.808;9.006;2022-10-19T10:01:36;97953.31;;;17.07;84.86
41703;BME280;861;48.808;9.006;2022-10-19T10:04:13;97953.25;;;17.14;84.29
41703;BME280;861;48.808;9.006;2022-10-19T10:06:46;97944.94;;;17.21;84.40
41703;BME280;861;48.808;9.006;2022-10-19T10:09:23;97950.09;;;17.16;84.26
41703;BME280;861;48.808;9.006;2022-10-19T10:11:57;97944.53;;;17.23;83.79
41703;BME280;861;48.808;9.006;2022-10-19T10:14:35;97937.50;;;17.18;83.40
41703;BME280;861;48.808;9.006;2022-10-19T10:17:22;97932.06;;;17.11;84.12
41703;BME280;861;48.808;9.006;2022-10-19T10:22:32;97940.13;;;17.29;83.68
41703;BME280;861;48.808;9.006;2022-10-19T10:25:10;97950.25;;;17.42;83.13
41703;BME280;861;48.808;9.006;2022-10-19T10:28:20;97950.16;;;17.53;83.53
41703;BME280;861;48.808;9.006;2022-10-19T10:30:55;97945.16;;;17.44;82.72
41703;BME280;861;48.808;9.006;2022-10-19T10:33:29;97943.97;;;17.38;82.16
41703;BME280;861;48.808;9.006;2022-10-19T10:36:08;97945.59;;;17.36;83.18
41703;BME280;861;48.808;9.006;2022-10-19T10:38:48;97947.03;;;17.51;81.67
41703;BME280;861;48.808;9.006;2022-10-19T10:41:23;97935.25;;;17.50;81.37
41703;BME280;861;48.808;9.006;2022-10-19T10:44:00;97928.91;;;17.57;82.65
41703;BME280;861;48.808;9.006;2022-10-19T10:46:59;97926.28;;;17.39;82.80
41703;BME280;861;48.808;9.006;2022-10-19T10:49:36;97923.94;;;17.38;81.99
41703;BME280;861;48.808;9.006;2022-10-19T10:56:29;97916.16;;;17.29;81.31
41703;BME280;861;48.808;9.006;2022-10-19T10:59:14;97918.94;;;17.26;82.07
41703;BME280;861;48.808;9.006;2022-10-19T11:02:34;97918.03;;;17.39;81.76
41703;BME280;861;48.808;9.006;2022-10-19T11:05:33;97915.13;;;17.57;81.34
41703;BME280;861;48.808;9.006;2022-10-19T11:08:26;97917.47;;;17.58;80.86
41703;BME280;861;48.808;9.006;2022-10-19T11:11:24;97908.06;;;17.52;81.34
41703;BME280;861;48.808;9.006;2022-10-19T11:17:06;97895.63;;;17.37;81.19
41703;BME280;861;48.808;9.006;2022-10-19T11:19:43;97898.81;;;17.32;82.78
41703;BME280;861;48.808;9.006;2022-10-19T11:22:25;97891.22;;;17.47;81.70
41703;BME280;861;48.808;9.006;2022-10-19T11:25:17;97889.16;;;17.54;81.06
41703;BME280;861;48.808;9.006;2022-10-19T11:28:18;97878.13;;;17.58;81.88
41703;BME280;861;48.808;9.006;2022-10-19T11:31:18;97880.19;;;17.50;81.10
41703;BME280;861;48.808;9.006;2022-10-19T11:36:53;97875.34;;;17.61;81.71
41703;BME280;861;48.808;9.006;2022-10-19T11:40:08;97866.31;;;17.57;81.04
41703;BME280;861;48.808;9.006;2022-10-19T11:52:08;97843.97;;;17.52;81.09
41703;BME280;861;48.808;9.006;2022-10-19T11:55:03;97838.41;;;17.55;80.89
41703;BME280;861;48.808;9.006;2022-10-19T12:05:02;97829.81;;;17.83;80.17
41703;BME280;861;48.808;9.006;2022-10-19T12:14:08;97826.94;;;18.17;79.23
41703;BME280;861;48.808;9.006;2022-10-19T12:16:49;97821.56;;;18.10;79.06
41703;BME280;861;48.808;9.006;2022-10-19T12:19:38;97812.91;;;18.08;79.27
41703;BME280;861;48.808;9.006;2022-10-19T12:22:22;97813.72;;;18.08;79.27
41703;BME280;861;48.808;9.006;2022-10-19T12:24:58;97811.44;;;18.00;79.15
41703;BME280;861;48.808;9.006;2022-10-19T12:27:37;97813.66;;;18.12;79.06
41703;BME280;861;48.808;9.006;2022-10-19T12:30:27;97814.41;;;18.12;79.30
41703;BME280;861;48.808;9.006;2022-10-19T12:42:34;97797.00;;;18.19;76.32
41703;BME280;861;48.808;9.006;2022-10-19T12:48:17;97786.63;;;18.26;76.99
41703;BME280;861;48.808;9.006;2022-10-19T12:53:31;97784.06;;;18.43;76.71
41703;BME280;861;48.808;9.006;2022-10-19T12:56:18;97776.84;;;18.49;76.42
41703;BME280;861;48.808;9.006;2022-10-19T12:58:56;97773.69;;;18.50;75.85
41703;BME280;861;48.808;9.006;2022-10-19T13:01:43;97780.59;;;18.62;75.44
41703;BME280;861;48.808;9.006;2022-10-19T13:04:23;97772.13;;;18.49;75.37
41703;BME280;861;48.808;9.006;2022-10-19T13:11:07;97765.84;;;18.72;75.14
41703;BME280;861;48.808;9.006;2022-10-19T13:14:05;97772.06;;;18.53;75.16
41703;BME280;861;48.808;9.006;2022-10-19T13:17:04;97765.53;;;18.66;75.72
41703;BME280;861;48.808;9.006;2022-10-19T13:19:33;97766.78;;;18.85;75.53
41703;BME280;861;48.808;9.006;2022-10-19T13:22:24;97758.75;;;18.94;74.25
41703;BME280;861;48.808;9.006;2022-10-19T13:25:34;97755.28;;;19.09;74.49
41703;BME280;861;48.808;9.006;2022-10-19T13:31:00;97753.47;;;19.22;73.09
41703;BME280;861;48.808;9.006;2022-10-19T13:41:43;97738.16;;;19.57;71.90
41703;BME280;861;48.808;9.006;2022-10-19T13:47:25;97716.69;;;19.64;71.02
41703;BME280;861;48.808;9.006;2022-10-19T13:50:39;97720.59;;;19.83;71.50
41703;BME280;861;48.808;9.006;2022-10-19T13:53:39;97712.84;;;20.10;71.06
41703;BME280;861;48.808;9.006;2022-10-19T14:00:01;97708.66;;;20.22;69.15
41703;BME280;861;48.808;9.006;2022-10-19T14:11:43;97677.19;;;20.76;69.02
41703;BME280;861;48.808;9.006;2022-10-19T14:14:24;97689.56;;;20.72;68.93
41703;BME280;861;48.808;9.006;2022-10-19T14:17:01;97682.47;;;20.71;68.30
41703;BME280;861;48.808;9.006;2022-10-19T14:19:51;97686.34;;;20.29;67.66
41703;BME280;861;48.808;9.006;2022-10-19T14:22:34;97686.19;;;20.36;68.84
41703;BME280;861;48.808;9.006;2022-10-19T14:25:24;97683.50;;;20.32;68.51
41703;BME280;861;48.808;9.006;2022-10-19T14:28:04;97683.22;;;20.43;68.60
41703;BME280;861;48.808;9.006;2022-10-19T14:30:35;97672.84;;;20.47;68.74
41703;BME280;861;48.808;9.006;2022-10-19T14:33:14;97676.56;;;20.40;67.95
41703;BME280;861;48.808;9.006;2022-10-19T14:40:22;97671.41;;;20.26;67.41
41703;BME280;861;48.808;9.006;2022-10-19T14:43:47;97666.63;;;20.11;68.08
41703;BME280;861;48.808;9.006;2022-10-19T14:46:15;97671.66;;;20.16;68.21
41703;BME280;861;48.808;9.006;2022-10-19T14:48:48;97670.69;;;20.22;68.79
41703;BME280;861;48.808;9.006;2022-10-19T14:51:35;97669.06;;;20.25;68.61
41703;BME280;861;48.808;9.006;2022-10-19T14:54:36;97663.34;;;20.16;68.47
41703;BME280;861;48.808;9.006;2022-10-19T14:57:28;97672.91;;;20.11;68.14
41703;BME280;861;48.808;9.006;2022-10-19T15:00:04;97660.22;;;19.98;68.99
41703;BME280;861;48.808;9.006;2022-10-19T15:02:44;97657.31;;;19.89;69.75
41703;BME280;861;48.808;9.006;2022-10-19T15:05:38;97652.88;;;19.91;70.05
41703;BME280;861;48.808;9.006;2022-10-19T15:08:44;97656.25;;;19.99;69.71
41703;BME280;861;48.808;9.006;2022-10-19T15:11:37;97654.78;;;19.94;69.13
41703;BME280;861;48.808;9.006;2022-10-19T15:14:24;97645.72;;;19.77;70.00
41703;BME280;861;48.808;9.006;2022-10-19T15:17:02;97650.19;;;19.71;70.19
41703;BME280;861;48.808;9.006;2022-10-19T15:19:40;97654.41;;;19.60;69.53
41703;BME280;861;48.808;9.006;2022-10-19T15:27:38;97657.31;;;19.17;71.41
41703;BME280;861;48.808;9.006;2022-10-19T15:30:24;97657.31;;;19.17;71.66
41703;BME280;861;48.808;9.006;2022-10-19T15:33:13;97653.50;;;19.27;71.25
41703;BME280;861;48.808;9.006;2022-10-19T15:35:44;97651.06;;;19.33;70.87
41703;BME280;861;48.808;9.006;2022-10-19T15:38:18;97638.13;;;19.30;71.04
41703;BME280;861;48.808;9.006;2022-10-19T15:40:58;97645.53;;;19.33;70.92
41703;BME280;861;48.808;9.006;2022-10-19T15:43:36;97649.34;;;19.19;71.10
41703;BME280;861;48.808;9.006;2022-10-19T15:46:23;97643.28;;;19.08;70.85
41703;BME280;861;48.808;9.006;2022-10-19T15:48:57;97646.13;;;18.85;71.68
41703;BME280;861;48.808;9.006;2022-10-19T15:54:07;97644.06;;;19.09;71.51
41703;BME280;861;48.808;9.006;2022-10-19T15:56:38;97633.88;;;19.06;71.57
41703;BME280;861;48.808;9.006;2022-10-19T15:59:20;97630.75;;;19.04;71.47
41703;BME280;861;48.808;9.006;2022-10-19T16:01:48;97624.81;;;19.05;71.94
41703;BME280;861;48.808;9.006;2022-10-19T16:04:16;97624.19;;;18.98;71.21
41703;BME280;861;48.808;9.006;2022-10-19T16:06:45;97625.44;;;18.74;72.16
41703;BME280;861;48.808;9.006;2022-10-19T16:09:22;97619.88;;;18.58;72.44
41703;BME280;861;48.808;9.006;2022-10-19T16:11:49;97617.19;;;18.54;72.35
41703;BME280;861;48.808;9.006;2022-10-19T16:14:22;97614.63;;;18.63;72.44
41703;BME280;861;48.808;9.006;2022-10-19T16:16:49;97623.13;;;18.72;72.37
41703;BME280;861;48.808;9.006;2022-10-19T16:19:16;97624.53;;;18.80;71.80